Ellis, Indiana
Current Conditions -  °F | °C
As of 7:15 PM on Sunday 25 Jan 2015 (Local Time) from KRSV Reporting Station
Light Rain Light Rain  
Wind Chill: 32°   Ceiling: 1300
Heat Index: 38°   Visibility: 7mi
Dew Point: 38°   Wind: 9mph
Humidity: 98%   Direction: 10°N
Pressure: 29.71"   Gusts: NA
Location:  39.0631°N, 87.2571°W
Report Text: KRSV 260015Z AUTO 01008KT 7SM -RA SCT003 BKN013 OVC018 04/03 A2971 RMK AO2 T00350032
Loading
Personal Weather Stations






























Interactive Weather Map New forecast layout! Learn more

10-Day Weather Forecast

Advertisements
Track Severe Weather on mobile